Melba, Idaho
Current Conditions -  °F | °C
As of 11:35 PM on Monday 20 Oct 2014 (Local Time) from KMAN Reporting Station
Overcast Overcast  
Wind Chill: 63°   Ceiling: 7000
Heat Index: 63°   Visibility: 10mi
Dew Point: 39°   Wind: 9mph
Humidity: 42%   Direction: 290°WNW
Pressure: 29.73"   Gusts: NA
Location:  43.38°N, 116.53°W
Report Text: KMAN 210535Z AUTO 29008KT 10SM FEW048 BKN070 OVC100 17/04 A2973 RMK AO1
Loading
Personal Weather Stations






























Interactive Weather Map
Tropical Storm Tracking
New forecast layout! Learn more

10-Day Weather Forecast

Advertisements
Track Severe Weather on mobile